Time;durP1;ratioP1;P1;durP2;ratioP2;P2;SDS_P1;SDS_P2;PMS_P1;PMS_P2;Temp;Humidity;BMP_temperature;BMP_pressure;BME280_temperature;BME280_humidity;BME280_pressure;Samples;Min_cycle;Max_cycle;Signal;HPM_P1;HPM_P2
2022/09/17 00:01:13;;;;;;;8.05;1.30;;;15.60;85.50;;;;;;5075393;28;20040;-76
2022/09/17 00:03:38;;;;;;;11.60;1.50;;;15.50;85.30;;;;;;5075514;28;20028;-76
2022/09/17 00:06:07;;;;;;;14.02;1.90;;;15.40;85.80;;;;;;5075394;28;20025;-76
2022/09/17 00:08:35;;;;;;;16.40;2.00;;;15.40;86.50;;;;;;5075773;28;20025;-76
2022/09/17 00:11:12;;;;;;;9.15;1.23;;;15.40;86.80;;;;;;5075321;28;20081;-76
2022/09/17 00:13:38;;;;;;;12.20;1.17;;;15.30;87.00;;;;;;5075602;28;20016;-76
2022/09/17 00:16:05;;;;;;;10.43;1.33;;;15.40;87.50;;;;;;5075241;28;20033;-76
2022/09/17 00:18:31;;;;;;;12.70;1.73;;;15.30;87.30;;;;;;5075466;28;20025;-76
2022/09/17 00:20:56;;;;;;;9.15;1.35;;;15.30;87.60;;;;;;5074961;28;20034;-76
2022/09/17 00:23:22;;;;;;;11.30;1.10;;;15.30;87.50;;;;;;5075140;28;20033;-76
2022/09/17 00:25:48;;;;;;;7.40;1.05;;;15.40;87.80;;;;;;5074929;28;20825;-76
2022/09/17 00:28:14;;;;;;;9.27;1.05;;;15.40;87.80;;;;;;5074935;28;20056;-76
2022/09/17 00:30:42;;;;;;;8.63;1.20;;;15.40;87.70;;;;;;5075177;28;20031;-76
2022/09/17 00:33:10;;;;;;;9.15;1.30;;;15.40;87.60;;;;;;5074901;28;20055;-76
2022/09/17 00:35:35;;;;;;;7.70;1.13;;;15.50;87.70;;;;;;5075150;28;20017;-76
2022/09/17 00:38:01;;;;;;;13.65;1.65;;;15.40;87.60;;;;;;5074707;28;20025;-76
2022/09/17 00:40:27;;;;;;;9.30;1.27;;;15.40;87.50;;;;;;5075211;28;20072;-76
2022/09/17 00:42:52;;;;;;;11.38;1.15;;;15.30;87.30;;;;;;5073844;28;20472;-76
2022/09/17 00:45:19;;;;;;;14.95;2.08;;;15.30;87.50;;;;;;5074735;28;20365;-76
2022/09/17 00:48:06;;;;;;;10.93;1.33;;;15.20;87.80;;;;;;5074494;28;20036;-76
2022/09/17 00:50:39;;;;;;;9.40;1.20;;;15.20;88.00;;;;;;5073927;28;20111;-76
2022/09/17 00:53:12;;;;;;;10.23;0.90;;;15.10;87.80;;;;;;5074696;28;20024;-76
2022/09/17 00:56:15;;;;;;;11.05;0.93;;;15.10;88.10;;;;;;5074425;28;20526;-76
2022/09/17 00:58:41;;;;;;;11.70;1.23;;;15.10;88.40;;;;;;5052682;28;20044;-76
2022/09/17 01:01:07;;;;;;;7.78;1.23;;;15.20;88.50;;;;;;5074211;28;20294;-76
2022/09/17 01:03:32;;;;;;;7.93;0.90;;;15.20;88.60;;;;;;5074589;28;20348;-76
2022/09/17 01:06:18;;;;;;;9.73;0.85;;;15.30;88.70;;;;;;5074510;28;20078;-76
2022/09/17 01:08:56;;;;;;;9.70;1.00;;;15.30;88.70;;;;;;5074144;28;20028;-76
2022/09/17 01:11:43;;;;;;;8.95;1.20;;;15.40;88.50;;;;;;5074061;28;20499;-76
2022/09/17 01:14:37;;;;;;;14.30;1.45;;;15.30;88.40;;;;;;5074329;28;20069;-76
2022/09/17 01:17:06;;;;;;;9.55;1.50;;;15.20;88.50;;;;;;5074120;28;20021;-76
2022/09/17 01:19:56;;;;;;;12.38;1.25;;;15.20;88.90;;;;;;5074306;28;20032;-76
2022/09/17 01:22:28;;;;;;;11.63;1.52;;;15.10;89.30;;;;;;5074146;28;20128;-76
2022/09/17 01:25:44;;;;;;;14.88;1.40;;;15.00;89.90;;;;;;5073915;28;20380;-77
2022/09/17 01:28:28;;;;;;;14.15;1.83;;;15.00;90.30;;;;;;5071300;28;20052;-77
2022/09/17 01:31:07;;;;;;;7.45;1.20;;;14.90;90.30;;;;;;5073818;28;20020;-77
2022/09/17 01:33:49;;;;;;;11.13;1.25;;;14.70;90.50;;;;;;5073880;28;20405;-76
2022/09/17 01:36:32;;;;;;;9.65;1.17;;;14.60;90.90;;;;;;5073685;28;20020;-77
2022/09/17 01:39:18;;;;;;;9.80;1.27;;;14.60;91.00;;;;;;5073636;28;20480;-76
2022/09/17 01:42:05;;;;;;;10.65;1.08;;;14.60;91.20;;;;;;5073824;28;20033;-77
2022/09/17 01:44:39;;;;;;;12.25;1.17;;;14.50;91.10;;;;;;5073477;28;20032;-77
2022/09/17 01:47:11;;;;;;;12.57;1.38;;;14.60;91.20;;;;;;5073453;28;20032;-76
2022/09/17 01:49:38;;;;;;;10.82;1.02;;;14.60;91.30;;;;;;5073454;28;20024;-77
2022/09/17 01:52:06;;;;;;;11.23;1.25;;;14.60;91.30;;;;;;5073398;28;20033;-77
2022/09/17 01:54:42;;;;;;;9.48;1.00;;;14.70;91.30;;;;;;5073310;28;20117;-77
2022/09/17 01:57:35;;;;;;;10.57;1.30;;;14.70;91.30;;;;;;5073390;28;20032;-77
2022/09/17 02:00:10;;;;;;;10.90;1.25;;;14.80;91.40;;;;;;5073162;28;20029;-77
2022/09/17 02:02:42;;;;;;;9.23;1.30;;;14.90;91.30;;;;;;5073536;28;20039;-77
2022/09/17 02:05:16;;;;;;;9.35;1.17;;;14.90;91.20;;;;;;5071853;28;20458;-77
2022/09/17 02:07:58;;;;;;;9.35;0.98;;;15.00;91.20;;;;;;5073220;28;20612;-77
2022/09/17 02:10:36;;;;;;;6.65;0.80;;;15.00;91.20;;;;;;5073518;28;20562;-77
2022/09/17 02:13:08;;;;;;;10.05;0.95;;;15.10;91.20;;;;;;5073366;28;20024;-76
2022/09/17 02:15:39;;;;;;;11.50;1.23;;;15.20;91.10;;;;;;5073148;28;20028;-76
2022/09/17 02:18:28;;;;;;;8.93;0.98;;;15.20;91.00;;;;;;5073358;28;20037;-76
2022/09/17 02:21:04;;;;;;;5.88;0.80;;;15.20;90.90;;;;;;5073118;28;20119;-77
2022/09/17 02:23:35;;;;;;;9.13;1.05;;;15.30;90.90;;;;;;5073294;28;20032;-76
2022/09/17 02:26:11;;;;;;;11.50;1.25;;;15.20;90.80;;;;;;5073390;28;20108;-77
2022/09/17 02:28:41;;;;;;;9.63;1.55;;;15.30;91.10;;;;;;5072834;28;20450;-76
2022/09/17 02:31:07;;;;;;;7.90;1.63;;;15.20;90.70;;;;;;5073029;28;20491;-76
2022/09/17 02:33:34;;;;;;;8.95;1.60;;;15.20;90.70;;;;;;5073028;28;20391;-76
2022/09/17 02:36:01;;;;;;;9.45;1.17;;;15.10;90.60;;;;;;5072808;28;20024;-76
2022/09/17 02:38:29;;;;;;;10.45;1.10;;;15.10;90.50;;;;;;5072832;28;20480;-76
2022/09/17 02:41:17;;;;;;;14.60;1.55;;;15.00;90.60;;;;;;5073055;28;20391;-77
2022/09/17 02:44:08;;;;;;;11.35;1.20;;;15.00;90.60;;;;;;5072696;28;20021;-76
2022/09/17 02:47:17;;;;;;;12.00;1.40;;;14.90;90.50;;;;;;5072968;28;20029;-77
2022/09/17 02:50:17;;;;;;;11.95;1.83;;;14.90;90.60;;;;;;5049736;28;20035;-76
2022/09/17 02:53:20;;;;;;;7.72;1.20;;;14.90;90.70;;;;;;5072794;28;20025;-76
2022/09/17 02:55:59;;;;;;;11.95;1.50;;;14.90;90.70;;;;;;5072490;28;20028;-76
2022/09/17 02:59:00;;;;;;;7.20;1.35;;;14.90;90.50;;;;;;5073110;28;20083;-76
2022/09/17 03:01:37;;;;;;;9.88;0.82;;;14.80;90.60;;;;;;5072548;28;20033;-76
2022/09/17 03:04:07;;;;;;;7.35;1.10;;;14.90;90.70;;;;;;5072490;28;20016;-76
2022/09/17 03:06:32;;;;;;;12.05;1.05;;;14.90;90.70;;;;;;5075314;28;20078;-76
2022/09/17 03:08:58;;;;;;;6.60;0.90;;;15.00;90.70;;;;;;5076732;28;20021;-77
2022/09/17 03:11:24;;;;;;;9.70;1.05;;;15.10;90.50;;;;;;5076437;28;20035;-77
2022/09/17 03:13:50;;;;;;;10.13;1.40;;;15.00;90.60;;;;;;5076573;28;20024;-77
2022/09/17 03:16:15;;;;;;;8.20;1.15;;;15.10;90.20;;;;;;5076321;28;20032;-77
2022/09/17 03:18:41;;;;;;;13.57;1.33;;;15.10;90.20;;;;;;5076555;28;20066;-76
2022/09/17 03:21:07;;;;;;;6.18;0.80;;;15.10;90.10;;;;;;5076350;28;20071;-77
2022/09/17 03:23:33;;;;;;;9.43;1.20;;;15.00;90.00;;;;;;5076425;28;20044;-76
2022/09/17 03:26:00;;;;;;;10.15;0.93;;;15.00;90.00;;;;;;5076232;28;20059;-76
2022/09/17 03:28:26;;;;;;;7.88;0.85;;;14.90;90.00;;;;;;5076032;28;20408;-76
2022/09/17 03:30:52;;;;;;;7.82;0.88;;;14.90;90.20;;;;;;5076112;28;20017;-77
2022/09/17 03:33:18;;;;;;;9.18;0.77;;;14.90;90.40;;;;;;5075939;28;20032;-76
2022/09/17 03:35:45;;;;;;;4.80;0.70;;;15.00;90.10;;;;;;5076305;28;20025;-76
2022/09/17 03:38:11;;;;;;;6.97;0.77;;;15.00;90.00;;;;;;5075943;28;20028;-77
2022/09/17 03:40:37;;;;;;;8.52;1.00;;;15.00;90.00;;;;;;5075857;28;20039;-76
2022/09/17 03:43:03;;;;;;;8.55;0.77;;;15.00;89.90;;;;;;5075832;28;20123;-76
2022/09/17 03:45:29;;;;;;;8.60;0.93;;;14.90;89.50;;;;;;5075802;28;20078;-76
2022/09/17 03:47:55;;;;;;;8.82;0.88;;;14.90;89.60;;;;;;5075444;28;20016;-77
2022/09/17 03:50:21;;;;;;;7.75;0.93;;;14.90;89.80;;;;;;5076057;28;20050;-76
2022/09/17 03:52:46;;;;;;;4.55;0.55;;;14.90;90.00;;;;;;5075878;28;20450;-76
2022/09/17 03:55:12;;;;;;;9.63;1.02;;;14.90;89.80;;;;;;5075817;28;20028;-77
2022/09/17 03:57:38;;;;;;;7.38;1.05;;;15.00;89.30;;;;;;5075602;28;20024;-76
2022/09/17 04:00:04;;;;;;;8.82;0.90;;;14.90;89.00;;;;;;5075715;28;20032;-77
2022/09/17 04:02:30;;;;;;;7.03;0.70;;;14.90;89.00;;;;;;5075468;28;20070;-76
2022/09/17 04:04:56;;;;;;;7.60;0.70;;;14.90;88.10;;;;;;5075782;28;20445;-76
2022/09/17 04:07:21;;;;;;;5.63;0.70;;;14.80;88.00;;;;;;5075397;28;20107;-76
2022/09/17 04:09:47;;;;;;;5.25;0.63;;;14.70;87.80;;;;;;5075807;28;20353;-76
2022/09/17 04:12:12;;;;;;;9.40;0.75;;;14.60;88.00;;;;;;5075498;28;20048;-77
2022/09/17 04:14:38;;;;;;;9.07;1.45;;;14.60;88.20;;;;;;5075493;28;20376;-76
2022/09/17 04:17:03;;;;;;;6.30;1.13;;;14.60;88.30;;;;;;5075274;28;20046;-76
2022/09/17 04:19:29;;;;;;;7.50;0.77;;;14.50;88.40;;;;;;5075217;28;20033;-77
2022/09/17 04:21:55;;;;;;;5.72;0.63;;;14.40;88.40;;;;;;5075082;28;20037;-76
2022/09/17 04:24:20;;;;;;;10.85;0.98;;;14.40;88.60;;;;;;5075384;28;20024;-76
2022/09/17 04:26:46;;;;;;;7.95;1.02;;;14.40;88.80;;;;;;5075058;28;20021;-76
2022/09/17 04:29:11;;;;;;;5.15;0.57;;;14.40;89.20;;;;;;5074805;28;20102;-76
2022/09/17 04:31:37;;;;;;;7.07;0.80;;;14.40;89.40;;;;;;5074689;28;20028;-76
2022/09/17 04:34:02;;;;;;;6.22;0.57;;;14.40;89.60;;;;;;5074902;28;20021;-76
2022/09/17 04:36:28;;;;;;;7.30;0.65;;;14.30;89.20;;;;;;5074927;28;20075;-76
2022/09/17 04:38:54;;;;;;;4.85;0.68;;;14.30;89.30;;;;;;5074971;28;20021;-76
2022/09/17 04:41:19;;;;;;;8.77;1.17;;;14.30;89.40;;;;;;5075019;28;20426;-76
2022/09/17 04:43:45;;;;;;;8.02;1.00;;;14.30;89.40;;;;;;5074421;28;20020;-77
2022/09/17 04:46:12;;;;;;;6.35;0.63;;;14.20;89.70;;;;;;5074618;28;20025;-76
2022/09/17 04:48:38;;;;;;;7.85;0.50;;;14.20;90.10;;;;;;5074917;28;20023;-77
2022/09/17 04:51:04;;;;;;;6.15;0.47;;;14.20;90.10;;;;;;5074773;28;20032;-76
2022/09/17 04:53:29;;;;;;;11.65;0.90;;;14.30;90.00;;;;;;5074314;28;20020;-76
2022/09/17 04:55:55;;;;;;;7.32;0.65;;;14.40;90.00;;;;;;5074482;28;20113;-76
2022/09/17 04:58:20;;;;;;;5.72;0.93;;;14.50;89.80;;;;;;5074683;28;20020;-77
2022/09/17 05:00:47;;;;;;;8.07;0.80;;;14.60;89.60;;;;;;5074212;28;20385;-76
2022/09/17 05:03:13;;;;;;;5.30;0.60;;;14.60;89.20;;;;;;5074511;28;20400;-76
2022/09/17 05:05:39;;;;;;;5.35;0.60;;;14.60;89.10;;;;;;5074299;28;20060;-77
2022/09/17 05:08:04;;;;;;;8.60;0.80;;;14.60;88.80;;;;;;5074007;28;20044;-76
2022/09/17 05:10:30;;;;;;;3.90;0.60;;;14.60;88.30;;;;;;5074509;28;20028;-77
2022/09/17 05:12:56;;;;;;;6.40;0.75;;;14.60;88.50;;;;;;5074491;28;20024;-76
2022/09/17 05:15:23;;;;;;;8.00;0.70;;;14.60;88.20;;;;;;5073967;28;20107;-76
2022/09/17 05:17:49;;;;;;;9.23;0.65;;;14.60;87.90;;;;;;5074288;28;20108;-76
2022/09/17 05:20:15;;;;;;;10.05;0.93;;;14.60;87.60;;;;;;5072669;28;20115;-76
2022/09/17 05:22:45;;;;;;;11.55;1.30;;;14.50;87.40;;;;;;5074076;28;20078;-77
2022/09/17 05:25:13;;;;;;;5.35;0.63;;;14.40;87.50;;;;;;5073915;28;20024;-76
2022/09/17 05:27:39;;;;;;;12.13;0.80;;;14.30;87.60;;;;;;5073474;28;20052;-76
2022/09/17 05:30:05;;;;;;;9.07;0.90;;;14.30;87.50;;;;;;5073581;28;20059;-76
2022/09/17 05:32:31;;;;;;;8.90;1.27;;;14.20;87.60;;;;;;5073789;28;20024;-76
2022/09/17 05:34:57;;;;;;;7.88;0.57;;;14.20;87.90;;;;;;5073666;28;20158;-77
2022/09/17 05:37:22;;;;;;;3.10;0.50;;;14.10;88.10;;;;;;5073699;28;20029;-76
2022/09/17 05:39:48;;;;;;;5.90;0.50;;;14.10;88.30;;;;;;5073626;28;20392;-76
2022/09/17 05:42:13;;;;;;;11.32;1.42;;;14.10;88.90;;;;;;5073461;28;20035;-76
2022/09/17 05:44:39;;;;;;;5.68;0.73;;;14.00;88.90;;;;;;5073561;28;20099;-75
2022/09/17 05:47:04;;;;;;;8.00;1.40;;;13.80;89.60;;;;;;5073724;28;20035;-75
2022/09/17 05:49:30;;;;;;;8.05;0.80;;;13.80;90.10;;;;;;5073838;28;20020;-75
2022/09/17 05:51:55;;;;;;;6.72;0.65;;;13.80;90.30;;;;;;5073755;28;20353;-75
2022/09/17 05:54:21;;;;;;;8.38;0.90;;;13.90;90.30;;;;;;5073274;28;20115;-75
2022/09/17 05:56:47;;;;;;;8.27;0.68;;;13.90;90.10;;;;;;5073321;28;20025;-75
2022/09/17 05:59:14;;;;;;;6.97;0.70;;;13.90;90.20;;;;;;5073371;28;20021;-75
2022/09/17 06:01:39;;;;;;;10.80;0.60;;;14.00;90.30;;;;;;5073222;28;20036;-75
2022/09/17 06:04:05;;;;;;;3.72;0.40;;;14.10;90.20;;;;;;5073610;28;20028;-75
2022/09/17 06:06:31;;;;;;;6.90;0.68;;;14.20;90.10;;;;;;5073175;28;20147;-75
2022/09/17 06:08:59;;;;;;;4.75;0.52;;;14.30;90.00;;;;;;5073280;28;20020;-75
2022/09/17 06:11:25;;;;;;;6.30;0.68;;;14.40;89.70;;;;;;5073478;28;20399;-75
2022/09/17 06:13:54;;;;;;;8.73;1.35;;;14.40;89.50;;;;;;5073245;28;20104;-76
2022/09/17 06:16:22;;;;;;;8.00;0.80;;;14.50;88.90;;;;;;5073161;28;20024;-75
2022/09/17 06:18:49;;;;;;;3.72;0.50;;;14.40;88.80;;;;;;5073171;28;20032;-75
2022/09/17 06:21:16;;;;;;;5.57;0.70;;;14.40;88.80;;;;;;5073363;28;20090;-75
2022/09/17 06:23:42;;;;;;;10.98;1.17;;;14.50;88.40;;;;;;5073108;28;20099;-75
2022/09/17 06:26:08;;;;;;;10.73;0.65;;;14.50;87.90;;;;;;5072964;28;20033;-75
2022/09/17 06:28:34;;;;;;;5.32;0.60;;;14.50;88.10;;;;;;5072749;28;20051;-75
2022/09/17 06:31:02;;;;;;;8.23;0.88;;;14.50;88.20;;;;;;5073098;28;20107;-74
2022/09/17 06:33:28;;;;;;;7.65;0.68;;;14.60;88.20;;;;;;5073112;28;20029;-74
2022/09/17 06:35:59;;;;;;;6.93;0.70;;;14.60;87.80;;;;;;5073115;28;20103;-75
2022/09/17 06:38:26;;;;;;;5.68;0.50;;;14.60;87.60;;;;;;5072882;28;20056;-76
2022/09/17 06:40:52;;;;;;;7.03;0.77;;;14.50;87.40;;;;;;5075708;28;20041;-75
2022/09/17 06:43:19;;;;;;;7.25;0.52;;;14.50;87.30;;;;;;5077332;28;20029;-75
2022/09/17 06:45:56;;;;;;;7.68;0.80;;;14.50;87.60;;;;;;5077124;28;20056;-76
2022/09/17 06:48:22;;;;;;;7.55;0.63;;;14.40;87.70;;;;;;5077215;28;20025;-75
2022/09/17 06:50:49;;;;;;;4.25;0.43;;;14.50;87.80;;;;;;5076694;28;20029;-75
2022/09/17 06:53:15;;;;;;;6.97;0.40;;;14.40;87.60;;;;;;5076759;28;20111;-75
2022/09/17 06:55:41;;;;;;;11.82;0.63;;;14.50;87.70;;;;;;5077089;28;20107;-75
2022/09/17 06:58:07;;;;;;;6.35;0.60;;;14.50;87.70;;;;;;5076734;28;20157;-75
2022/09/17 07:00:33;;;;;;;4.78;0.55;;;14.50;87.70;;;;;;5076587;28;20036;-75
2022/09/17 07:02:59;;;;;;;6.13;0.50;;;14.50;87.80;;;;;;5076811;28;20392;-75
2022/09/17 07:05:27;;;;;;;4.03;0.60;;;14.50;88.00;;;;;;5076511;28;20035;-75
2022/09/17 07:07:53;;;;;;;3.78;0.47;;;14.50;88.00;;;;;;5076274;28;20143;-75
2022/09/17 07:10:21;;;;;;;7.50;0.50;;;14.60;87.90;;;;;;5076711;28;20029;-75
2022/09/17 07:12:47;;;;;;;8.57;0.80;;;14.50;88.10;;;;;;5076746;28;20052;-75
2022/09/17 07:15:14;;;;;;;6.32;0.60;;;14.40;88.40;;;;;;5076485;28;20028;-75
2022/09/17 07:17:43;;;;;;;10.30;0.63;;;14.50;88.80;;;;;;5076378;28;20027;-75
2022/09/17 07:20:09;;;;;;;6.07;0.50;;;14.50;89.00;;;;;;5076121;28;20039;-75
2022/09/17 07:22:35;;;;;;;5.22;0.50;;;14.50;89.10;;;;;;5076227;28;20040;-75
2022/09/17 07:25:01;;;;;;;7.28;0.77;;;14.60;88.90;;;;;;5076541;28;20375;-75
2022/09/17 07:27:28;;;;;;;4.90;0.40;;;14.60;89.00;;;;;;5075932;28;20058;-75
2022/09/17 07:29:54;;;;;;;5.47;0.40;;;14.70;88.70;;;;;;5076079;28;20078;-75
2022/09/17 07:32:20;;;;;;;5.07;0.60;;;14.80;88.70;;;;;;5076237;28;20029;-75
2022/09/17 07:34:46;;;;;;;6.95;0.60;;;14.80;88.50;;;;;;5075758;28;20036;-75
2022/09/17 07:37:11;;;;;;;9.25;0.63;;;14.80;88.30;;;;;;5075982;28;20388;-75
2022/09/17 07:39:37;;;;;;;6.00;0.57;;;14.80;88.20;;;;;;5076189;28;20028;-75
2022/09/17 07:42:03;;;;;;;3.85;0.40;;;14.80;88.70;;;;;;5075931;28;20432;-75
2022/09/17 07:44:30;;;;;;;5.75;0.52;;;14.80;88.30;;;;;;5076114;28;20399;-75
2022/09/17 07:46:55;;;;;;;4.20;0.38;;;14.90;88.10;;;;;;5075858;28;20033;-75
2022/09/17 07:49:21;;;;;;;7.18;0.43;;;14.90;87.90;;;;;;5075847;28;20357;-75
2022/09/17 07:51:47;;;;;;;10.50;0.63;;;15.00;87.70;;;;;;5075300;28;20025;-75
2022/09/17 07:54:12;;;;;;;3.72;0.50;;;15.10;88.10;;;;;;5075941;28;20468;-75
2022/09/17 07:56:38;;;;;;;4.78;0.52;;;15.10;87.80;;;;;;5075424;28;20016;-75
2022/09/17 07:59:04;;;;;;;4.38;0.40;;;15.20;88.20;;;;;;5075886;28;20033;-75
2022/09/17 08:01:33;;;;;;;5.63;0.50;;;15.40;87.80;;;;;;5075560;28;20505;-75
2022/09/17 08:03:58;;;;;;;5.63;0.40;;;15.50;86.60;;;;;;5075754;28;20074;-75
2022/09/17 08:06:26;;;;;;;6.85;0.52;;;15.60;86.20;;;;;;5075650;28;20028;-76
2022/09/17 08:08:53;;;;;;;8.68;0.70;;;15.70;85.50;;;;;;5075517;28;20039;-75
2022/09/17 08:11:20;;;;;;;5.38;0.38;;;15.80;85.80;;;;;;5075563;28;20029;-76
2022/09/17 08:13:51;;;;;;;6.13;0.77;;;15.80;84.50;;;;;;5075504;28;20028;-76
2022/09/17 08:16:17;;;;;;;4.38;0.80;;;15.80;84.50;;;;;;5075203;28;20031;-76
2022/09/17 08:18:44;;;;;;;4.03;0.30;;;15.90;83.80;;;;;;5075272;28;20031;-76
2022/09/17 08:21:15;;;;;;;5.72;0.50;;;15.90;83.40;;;;;;5075299;28;20044;-76
2022/09/17 08:23:42;;;;;;;10.35;0.63;;;15.90;83.90;;;;;;5075182;28;20027;-76
2022/09/17 08:26:13;;;;;;;4.93;0.43;;;15.90;83.90;;;;;;5075013;28;20033;-76
2022/09/17 08:28:39;;;;;;;7.15;0.60;;;15.90;84.80;;;;;;5074770;28;20102;-76
2022/09/17 08:31:07;;;;;;;9.10;0.77;;;15.90;83.80;;;;;;5075075;28;20101;-76
2022/09/17 08:33:38;;;;;;;5.63;0.57;;;15.90;83.30;;;;;;5074988;28;20035;-76
2022/09/17 08:36:04;;;;;;;5.93;0.43;;;15.90;83.50;;;;;;5074839;28;20494;-77
2022/09/17 08:38:32;;;;;;;5.43;0.38;;;16.00;83.20;;;;;;5075031;28;20068;-77
2022/09/17 08:41:10;;;;;;;5.13;0.38;;;16.10;83.00;;;;;;5074645;28;20024;-77
2022/09/17 08:44:01;;;;;;;4.40;0.50;;;16.30;82.50;;;;;;5074551;28;20451;-77
2022/09/17 08:46:30;;;;;;;7.10;0.60;;;16.40;81.50;;;;;;5075052;28;20071;-77
2022/09/17 08:49:23;;;;;;;3.60;0.45;;;16.40;81.00;;;;;;5074314;28;20024;-77
2022/09/17 08:52:01;;;;;;;6.32;0.47;;;16.40;80.40;;;;;;5074458;28;20383;-77
2022/09/17 08:54:35;;;;;;;4.43;0.30;;;16.30;80.30;;;;;;5074547;28;20095;-77
2022/09/17 08:57:17;;;;;;;6.07;0.40;;;16.30;80.50;;;;;;5074453;28;20021;-77
2022/09/17 08:59:55;;;;;;;4.88;0.30;;;16.40;80.30;;;;;;5074633;28;20151;-77
2022/09/17 09:02:42;;;;;;;7.55;0.57;;;16.40;79.30;;;;;;5073801;28;20396;-77
2022/09/17 09:05:12;;;;;;;6.15;0.45;;;16.20;79.30;;;;;;5074000;28;20464;-77
2022/09/17 09:07:44;;;;;;;5.07;0.30;;;16.30;78.20;;;;;;5074264;28;20042;-77
2022/09/17 09:10:15;;;;;;;7.53;0.45;;;16.30;77.40;;;;;;5074142;28;20073;-77
2022/09/17 09:12:42;;;;;;;2.75;0.20;;;16.30;75.60;;;;;;5074260;28;20063;-77
2022/09/17 09:15:26;;;;;;;2.03;0.30;;;16.30;76.90;;;;;;5073781;28;20081;-76
2022/09/17 09:17:53;;;;;;;4.80;0.30;;;16.50;76.30;;;;;;5074161;28;20434;-76
2022/09/17 09:20:31;;;;;;;3.45;0.20;;;16.60;75.60;;;;;;5074010;28;20024;-76
2022/09/17 09:23:02;;;;;;;2.58;0.30;;;16.70;75.00;;;;;;5073658;28;20051;-77
2022/09/17 09:25:36;;;;;;;4.40;0.20;;;16.80;74.50;;;;;;5073493;28;20039;-77
2022/09/17 09:28:22;;;;;;;4.05;0.30;;;16.90;74.50;;;;;;5073703;28;20048;-77
2022/09/17 09:30:50;;;;;;;3.80;0.20;;;17.00;73.70;;;;;;5074021;28;20028;-77
2022/09/17 09:33:21;;;;;;;3.50;0.20;;;17.00;73.30;;;;;;5073593;28;20048;-77
2022/09/17 09:35:47;;;;;;;4.75;0.30;;;17.10;73.50;;;;;;5073672;28;20169;-77
2022/09/17 09:38:23;;;;;;;5.35;0.40;;;17.20;73.40;;;;;;5073899;28;20457;-77
2022/09/17 09:41:09;;;;;;;6.75;0.55;;;17.20;73.00;;;;;;5073756;28;20056;-77
2022/09/17 09:44:07;;;;;;;5.20;0.45;;;17.30;72.90;;;;;;5073713;28;20029;-76
2022/09/17 09:47:01;;;;;;;3.40;0.32;;;17.30;73.10;;;;;;5073521;28;20467;-76
2022/09/17 09:49:49;;;;;;;4.18;0.20;;;17.50;73.90;;;;;;5073393;28;20028;-76
2022/09/17 09:52:31;;;;;;;5.00;0.30;;;17.70;73.40;;;;;;5073366;28;20391;-76
2022/09/17 09:55:23;;;;;;;4.72;0.20;;;17.80;72.70;;;;;;5073430;28;20097;-76
2022/09/17 09:57:52;;;;;;;11.30;0.50;;;17.80;73.50;;;;;;5073666;28;20040;-76
2022/09/17 10:00:39;;;;;;;2.60;0.30;;;17.80;74.40;;;;;;5073135;28;20028;-76
2022/09/17 10:03:30;;;;;;;2.83;0.40;;;17.70;73.20;;;;;;5073306;28;20033;-76
2022/09/17 10:06:02;;;;;;;3.60;0.63;;;17.50;73.50;;;;;;5073156;28;20525;-76
2022/09/17 10:08:31;;;;;;;2.67;0.20;;;17.20;76.10;;;;;;5073396;28;20028;-75
2022/09/17 10:11:03;;;;;;;6.10;0.30;;;17.00;77.80;;;;;;5073324;28;20036;-76
2022/09/17 10:13:35;;;;;;;2.73;0.33;;;16.90;78.80;;;;;;5072810;28;20451;-76
2022/09/17 10:16:20;;;;;;;2.28;0.20;;;16.90;79.50;;;;;;5073007;28;20368;-76
2022/09/17 10:18:48;;;;;;;4.35;0.30;;;16.90;81.20;;;;;;5073123;28;20048;-76
2022/09/17 10:21:41;;;;;;;1.52;0.10;;;16.90;82.40;;;;;;5073091;28;20029;-75
2022/09/17 10:24:18;;;;;;;6.35;0.73;;;16.80;82.70;;;;;;5071210;28;20111;-75
2022/09/17 10:26:44;;;;;;;3.60;0.20;;;16.70;84.30;;;;;;5073238;28;20032;-75
2022/09/17 10:29:17;;;;;;;3.95;0.20;;;16.60;84.10;;;;;;5072687;28;20044;-75
2022/09/17 10:31:54;;;;;;;5.32;0.20;;;16.50;84.00;;;;;;5073027;28;20024;-75
2022/09/17 10:34:29;;;;;;;4.20;0.32;;;16.70;87.80;;;;;;5073216;28;20021;-75
2022/09/17 10:36:55;;;;;;;4.18;0.20;;;17.10;89.30;;;;;;5072815;28;20024;-76
2022/09/17 10:39:43;;;;;;;5.63;0.47;;;17.10;88.40;;;;;;5073074;28;20119;-75
2022/09/17 10:42:17;;;;;;;3.67;0.40;;;17.00;86.90;;;;;;5072849;28;20041;-75
2022/09/17 10:44:53;;;;;;;3.40;0.38;;;16.80;87.80;;;;;;5073120;28;20021;-76
2022/09/17 10:47:28;;;;;;;5.78;0.40;;;16.50;87.80;;;;;;5072703;28;20468;-76
2022/09/17 10:50:07;;;;;;;2.00;0.20;;;16.10;87.50;;;;;;5072727;28;20029;-76
2022/09/17 10:52:40;;;;;;;3.95;0.20;;;15.90;87.60;;;;;;5072739;28;20071;-75
2022/09/17 10:55:32;;;;;;;2.30;0.10;;;16.00;88.20;;;;;;5073169;28;20108;-77
2022/09/17 10:58:08;;;;;;;1.80;0.13;;;16.30;87.50;;;;;;5072533;28;20107;-76
2022/09/17 11:00:48;;;;;;;3.20;0.57;;;16.50;88.20;;;;;;5072891;28;20021;-76
2022/09/17 11:03:35;;;;;;;1.60;0.10;;;16.70;87.80;;;;;;5072667;28;20029;-77
2022/09/17 11:06:17;;;;;;;3.22;0.40;;;17.00;87.40;;;;;;5072656;28;20402;-76
2022/09/17 11:08:57;;;;;;;4.10;0.10;;;17.30;87.40;;;;;;5072391;28;20490;-77
2022/09/17 11:11:45;;;;;;;2.65;0.10;;;17.60;87.70;;;;;;5072419;28;20036;-77
2022/09/17 11:14:26;;;;;;;2.88;0.40;;;17.70;88.40;;;;;;5072365;28;20058;-77
2022/09/17 11:17:20;;;;;;;2.38;0.22;;;17.80;85.10;;;;;;5072635;28;20036;-77
2022/09/17 11:20:14;;;;;;;2.90;0.30;;;17.80;84.10;;;;;;5072534;28;20025;-77
2022/09/17 11:23:10;;;;;;;5.85;0.30;;;17.90;84.90;;;;;;5072379;28;20043;-77
2022/09/17 11:25:43;;;;;;;2.85;0.28;;;17.90;83.00;;;;;;5072676;28;20515;-77
2022/09/17 11:28:32;;;;;;;2.30;0.20;;;18.00;81.60;;;;;;5075189;28;20148;-77
2022/09/17 11:31:03;;;;;;;2.35;0.20;;;18.00;82.40;;;;;;5070512;28;20063;-77
2022/09/17 11:33:40;;;;;;;3.25;0.30;;;17.90;82.20;;;;;;5076119;28;20028;-77
2022/09/17 11:36:23;;;;;;;5.43;0.30;;;18.00;81.30;;;;;;5076363;28;20052;-77
2022/09/17 11:38:51;;;;;;;5.43;0.47;;;18.00;81.10;;;;;;5075837;28;20032;-77
2022/09/17 11:41:19;;;;;;;5.75;0.43;;;17.90;78.90;;;;;;5075990;28;20036;-77
2022/09/17 11:44:09;;;;;;;4.65;0.50;;;17.90;79.60;;;;;;5075817;28;20547;-77
2022/09/17 11:46:58;;;;;;;8.88;0.75;;;18.00;80.40;;;;;;5075629;28;20043;-77
2022/09/17 11:49:40;;;;;;;6.32;0.77;;;18.00;76.20;;;;;;5075842;28;20028;-77
2022/09/17 11:52:25;;;;;;;7.07;0.70;;;17.90;76.50;;;;;;5075924;28;20043;-77
2022/09/17 11:54:57;;;;;;;7.50;0.68;;;18.00;76.20;;;;;;5075529;28;20062;-77
2022/09/17 11:57:31;;;;;;;11.68;0.82;;;18.00;74.30;;;;;;5075521;28;20024;-77
2022/09/17 12:00:22;;;;;;;7.85;0.70;;;17.90;74.10;;;;;;5075684;28;20116;-77
2022/09/17 12:03:07;;;;;;;6.93;0.60;;;17.90;75.00;;;;;;5075658;28;20112;-77
2022/09/17 12:05:45;;;;;;;5.10;0.60;;;18.20;75.60;;;;;;5075348;28;20487;-77
2022/09/17 12:08:16;;;;;;;11.48;0.80;;;18.30;73.90;;;;;;5075140;28;20119;-77
2022/09/17 12:11:01;;;;;;;7.22;0.60;;;18.30;70.50;;;;;;5075591;28;20029;-77
2022/09/17 12:13:44;;;;;;;5.70;0.70;;;18.20;71.10;;;;;;5075449;28;20046;-77
2022/09/17 12:16:13;;;;;;;7.97;0.70;;;18.20;71.30;;;;;;5075195;28;20024;-77
2022/09/17 12:19:22;;;;;;;6.32;0.32;;;18.20;72.90;;;;;;5075484;28;20021;-77
2022/09/17 12:21:55;;;;;;;3.50;0.40;;;18.20;75.60;;;;;;5075420;28;20033;-76
2022/09/17 12:24:28;;;;;;;3.53;0.75;;;17.90;74.80;;;;;;5075187;28;20024;-76
2022/09/17 12:26:57;;;;;;;2.33;0.20;;;17.60;75.80;;;;;;5074903;28;20097;-76
2022/09/17 12:29:46;;;;;;;2.20;0.20;;;17.60;76.30;;;;;;5074983;28;20503;-76
2022/09/17 12:32:20;;;;;;;4.90;0.30;;;17.40;75.90;;;;;;5075000;28;20392;-77
2022/09/17 12:34:58;;;;;;;2.38;0.20;;;17.40;74.70;;;;;;5074967;28;20016;-76
2022/09/17 12:37:47;;;;;;;1.83;0.13;;;17.40;74.50;;;;;;5074748;28;20100;-77
2022/09/17 12:40:38;;;;;;;4.30;0.88;;;17.40;75.10;;;;;;5074948;28;20024;-76
2022/09/17 12:43:19;;;;;;;3.60;0.28;;;17.60;74.80;;;;;;5074794;28;20535;-77
2022/09/17 12:46:01;;;;;;;5.38;0.30;;;17.80;74.00;;;;;;5075022;28;20081;-77
2022/09/17 12:48:45;;;;;;;3.40;0.20;;;17.90;73.40;;;;;;5074597;28;20028;-77
2022/09/17 12:51:32;;;;;;;7.75;0.52;;;17.90;71.80;;;;;;5074684;28;20047;-77
2022/09/17 12:54:28;;;;;;;1.90;0.38;;;17.80;71.30;;;;;;5074549;28;20116;-77
2022/09/17 12:57:09;;;;;;;3.85;0.20;;;17.50;71.80;;;;;;5074254;28;20025;-77
2022/09/17 13:00:00;;;;;;;4.63;0.35;;;17.40;72.80;;;;;;5074746;28;20024;-77
2022/09/17 13:02:36;;;;;;;2.95;0.30;;;17.40;75.20;;;;;;5073884;28;20066;-77
2022/09/17 13:05:14;;;;;;;7.13;0.43;;;17.40;76.80;;;;;;5074513;28;20135;-77
2022/09/17 13:08:27;;;;;;;6.10;0.40;;;17.60;77.20;;;;;;5074464;28;20389;-77
2022/09/17 13:11:05;;;;;;;3.25;0.28;;;17.90;77.30;;;;;;5060376;28;20043;-77
2022/09/17 13:13:37;;;;;;;4.97;0.40;;;18.10;77.40;;;;;;5073235;28;20067;-77
2022/09/17 13:16:02;;;;;;;4.05;0.35;;;18.40;78.20;;;;;;5073216;28;20372;-77